Time;durP1;ratioP1;P1;durP2;ratioP2;P2;SDS_P1;SDS_P2;PMS_P1;PMS_P2;Temp;Humidity;BMP_temperature;BMP_pressure;BME280_temperature;BME280_humidity;BME280_pressure;Samples;Min_cycle;Max_cycle;Signal;HPM_P1;HPM_P2
2023/11/08 00:00:15;;;;;;;4.30;1.40;;;8.60;99.90;;;;;;5074828;28;20568;-58
2023/11/08 00:02:41;;;;;;;2.77;1.00;;;8.60;99.90;;;;;;5074934;28;20580;-58
2023/11/08 00:05:09;;;;;;;2.13;1.17;;;8.60;99.90;;;;;;5074955;28;20225;-59
2023/11/08 00:07:36;;;;;;;3.00;1.23;;;8.60;99.90;;;;;;5074835;28;20212;-58
2023/11/08 00:10:02;;;;;;;1.73;0.97;;;8.70;99.90;;;;;;5074740;28;20224;-58
2023/11/08 00:12:30;;;;;;;2.60;1.07;;;8.70;99.90;;;;;;5074315;28;20569;-59
2023/11/08 00:14:57;;;;;;;3.83;1.10;;;8.70;99.90;;;;;;5074831;28;20228;-58
2023/11/08 00:17:25;;;;;;;2.77;1.10;;;8.60;99.90;;;;;;5074569;28;20295;-58
2023/11/08 00:19:54;;;;;;;2.63;1.20;;;8.60;99.90;;;;;;5074853;28;20261;-58
2023/11/08 00:22:21;;;;;;;4.47;1.10;;;8.50;99.90;;;;;;5074486;28;20292;-58
2023/11/08 00:24:47;;;;;;;3.17;1.07;;;8.50;99.90;;;;;;5074389;28;20701;-58
2023/11/08 00:27:14;;;;;;;3.17;1.37;;;8.60;99.90;;;;;;5074967;28;20266;-58
2023/11/08 00:29:42;;;;;;;1.33;0.80;;;8.50;99.90;;;;;;5074584;28;20228;-58
2023/11/08 00:32:09;;;;;;;2.40;1.13;;;8.50;99.90;;;;;;5074122;28;20212;-58
2023/11/08 00:34:37;;;;;;;2.60;0.90;;;8.50;99.90;;;;;;5074377;28;20240;-58
2023/11/08 00:37:04;;;;;;;2.57;1.20;;;8.50;99.90;;;;;;5074282;28;20209;-58
2023/11/08 00:39:31;;;;;;;4.37;1.90;;;8.60;99.90;;;;;;5074089;28;20229;-58
2023/11/08 00:41:58;;;;;;;2.67;1.20;;;8.70;99.90;;;;;;5074372;28;20235;-59
2023/11/08 00:44:24;;;;;;;3.47;1.50;;;8.90;99.90;;;;;;5074106;28;20583;-59
2023/11/08 00:46:54;;;;;;;4.33;1.63;;;9.00;99.90;;;;;;5074297;28;20442;-59
2023/11/08 00:49:20;;;;;;;4.33;1.40;;;9.20;99.90;;;;;;5073922;28;20787;-59
2023/11/08 00:51:47;;;;;;;5.43;1.40;;;9.40;99.90;;;;;;5073561;28;20701;-59
2023/11/08 00:54:14;;;;;;;1.90;1.20;;;9.50;99.90;;;;;;5073650;28;20643;-59
2023/11/08 00:56:40;;;;;;;5.00;1.20;;;9.60;99.90;;;;;;5074017;28;20201;-59
2023/11/08 00:59:07;;;;;;;2.53;1.33;;;9.70;99.90;;;;;;5073959;28;20235;-58
2023/11/08 01:01:35;;;;;;;3.33;1.50;;;9.80;99.90;;;;;;5073702;28;20674;-60
2023/11/08 01:04:10;;;;;;;3.33;1.10;;;9.90;99.90;;;;;;5073962;28;20205;-59
2023/11/08 01:06:37;;;;;;;5.43;1.27;;;10.00;99.90;;;;;;5073763;28;20224;-59
2023/11/08 01:09:05;;;;;;;4.80;1.40;;;10.00;99.90;;;;;;5073551;28;20225;-60
2023/11/08 01:11:32;;;;;;;2.90;1.03;;;10.10;99.90;;;;;;5073945;28;20239;-60
2023/11/08 01:13:59;;;;;;;2.73;1.00;;;10.10;99.90;;;;;;5073605;28;20318;-59
2023/11/08 01:16:25;;;;;;;3.87;1.10;;;10.30;99.90;;;;;;5073663;28;20208;-59
2023/11/08 01:18:52;;;;;;;3.13;1.37;;;10.20;99.90;;;;;;5073320;28;20240;-59
2023/11/08 01:21:20;;;;;;;2.80;1.40;;;10.10;99.90;;;;;;5073462;28;20205;-59
2023/11/08 01:23:48;;;;;;;1.73;1.17;;;10.20;99.90;;;;;;5073194;28;20262;-59
2023/11/08 01:26:15;;;;;;;3.73;1.27;;;10.20;99.90;;;;;;5073271;28;20705;-59
2023/11/08 01:28:42;;;;;;;2.03;1.10;;;10.20;99.90;;;;;;5073188;28;20718;-59
2023/11/08 01:31:09;;;;;;;2.73;1.37;;;10.20;99.90;;;;;;5073398;28;20205;-59
2023/11/08 01:33:36;;;;;;;2.60;1.17;;;10.10;99.90;;;;;;5073057;28;20208;-59
2023/11/08 01:36:03;;;;;;;3.57;0.90;;;10.10;99.90;;;;;;5073089;28;20201;-59
2023/11/08 01:38:31;;;;;;;3.97;1.20;;;10.10;99.90;;;;;;5073271;28;20224;-59
2023/11/08 01:40:57;;;;;;;2.50;0.90;;;9.90;99.90;;;;;;5073472;28;20204;-59
2023/11/08 01:43:28;;;;;;;3.17;1.27;;;9.90;99.90;;;;;;5072976;28;20204;-59
2023/11/08 01:46:05;;;;;;;4.23;1.27;;;9.70;99.90;;;;;;5072977;28;20308;-59
2023/11/08 01:48:32;;;;;;;3.40;1.00;;;9.60;99.90;;;;;;5072683;28;20259;-59
2023/11/08 01:50:59;;;;;;;3.73;0.80;;;9.60;99.90;;;;;;5073208;28;20209;-59
2023/11/08 01:53:28;;;;;;;2.93;1.03;;;9.50;99.90;;;;;;5072818;28;20204;-59
2023/11/08 01:55:56;;;;;;;2.23;0.87;;;9.40;99.90;;;;;;5072929;28;20208;-59
2023/11/08 01:58:24;;;;;;;2.43;1.03;;;9.30;99.90;;;;;;5072577;28;20626;-59
2023/11/08 02:00:52;;;;;;;3.03;0.90;;;9.20;99.90;;;;;;5072673;28;20219;-59
2023/11/08 02:03:19;;;;;;;1.47;0.90;;;9.10;99.90;;;;;;5071958;28;20215;-59
2023/11/08 02:05:45;;;;;;;2.07;0.90;;;9.20;99.90;;;;;;5072786;28;20224;-59
2023/11/08 02:08:12;;;;;;;3.00;1.00;;;9.10;99.90;;;;;;5072524;28;20228;-59
2023/11/08 02:10:39;;;;;;;3.87;1.00;;;9.00;99.90;;;;;;5072952;28;20631;-59
2023/11/08 02:13:08;;;;;;;2.63;1.23;;;9.00;99.90;;;;;;5072271;28;20204;-59
2023/11/08 02:15:41;;;;;;;4.40;1.23;;;9.00;99.90;;;;;;5072218;28;20209;-59
2023/11/08 02:18:07;;;;;;;2.13;0.80;;;8.90;99.90;;;;;;5072078;28;20744;-59
2023/11/08 02:20:35;;;;;;;3.07;1.43;;;9.00;99.90;;;;;;5072227;28;20683;-59
2023/11/08 02:23:01;;;;;;;2.73;1.20;;;8.90;99.90;;;;;;5071847;28;20227;-59
2023/11/08 02:25:30;;;;;;;3.47;1.10;;;8.90;99.90;;;;;;5072326;28;20669;-59
2023/11/08 02:27:57;;;;;;;1.97;0.87;;;8.80;99.90;;;;;;5071940;28;20316;-58
2023/11/08 02:30:24;;;;;;;2.43;1.00;;;8.70;99.90;;;;;;5072332;28;20213;-59
2023/11/08 02:32:51;;;;;;;2.87;0.80;;;8.60;99.90;;;;;;5071891;28;20240;-58
2023/11/08 02:35:17;;;;;;;4.33;1.10;;;8.60;99.90;;;;;;5072103;28;20209;-59
2023/11/08 02:37:46;;;;;;;1.73;0.87;;;8.60;99.90;;;;;;5071889;28;20228;-58
2023/11/08 02:40:13;;;;;;;3.13;0.80;;;8.50;99.90;;;;;;5072567;28;20612;-59
2023/11/08 02:42:42;;;;;;;2.57;0.90;;;8.50;99.90;;;;;;5071646;28;20213;-59
2023/11/08 02:45:09;;;;;;;5.20;1.07;;;8.50;99.90;;;;;;5071795;28;20208;-59
2023/11/08 02:47:37;;;;;;;3.27;1.00;;;8.40;99.90;;;;;;5071873;28;20352;-59
2023/11/08 02:50:04;;;;;;;3.43;0.90;;;8.40;99.90;;;;;;5071658;28;20296;-59
2023/11/08 02:52:32;;;;;;;4.47;1.20;;;8.30;99.90;;;;;;5071556;28;20204;-59
2023/11/08 02:54:59;;;;;;;2.50;1.00;;;8.30;99.90;;;;;;5071560;28;20223;-58
2023/11/08 02:57:27;;;;;;;2.77;0.97;;;8.30;99.90;;;;;;5071849;28;20201;-58
2023/11/08 02:59:55;;;;;;;1.27;0.90;;;8.30;99.90;;;;;;5072048;28;20245;-59
2023/11/08 03:02:22;;;;;;;3.50;1.13;;;8.40;99.90;;;;;;5071427;28;20237;-59
2023/11/08 03:04:49;;;;;;;4.87;1.77;;;8.50;99.90;;;;;;5071534;28;20201;-58
2023/11/08 03:07:16;;;;;;;2.63;1.10;;;8.50;99.90;;;;;;5071364;28;20265;-60
2023/11/08 03:09:43;;;;;;;2.63;0.80;;;8.60;99.90;;;;;;5071386;28;20201;-58
2023/11/08 03:12:09;;;;;;;1.80;0.80;;;8.70;99.90;;;;;;5071707;28;20201;-59
2023/11/08 03:14:36;;;;;;;4.47;1.13;;;8.80;99.90;;;;;;5071725;28;20240;-58
2023/11/08 03:17:04;;;;;;;1.70;0.80;;;8.80;99.90;;;;;;5071677;28;20365;-58
2023/11/08 03:19:31;;;;;;;1.27;0.60;;;8.90;99.90;;;;;;5071322;28;20244;-58
2023/11/08 03:22:00;;;;;;;4.53;1.20;;;9.00;99.90;;;;;;5071256;28;20291;-58
2023/11/08 03:24:27;;;;;;;1.30;0.60;;;9.00;99.90;;;;;;5071248;28;20678;-59
2023/11/08 03:26:53;;;;;;;4.43;0.93;;;9.00;99.90;;;;;;5071394;28;20706;-58
2023/11/08 03:29:21;;;;;;;1.40;0.80;;;9.00;99.90;;;;;;5071320;28;20573;-58
2023/11/08 03:31:47;;;;;;;2.80;0.70;;;9.10;99.90;;;;;;5071573;28;20278;-58
2023/11/08 03:34:15;;;;;;;2.17;0.87;;;9.10;99.90;;;;;;5071126;28;20305;-58
2023/11/08 03:36:42;;;;;;;3.20;0.90;;;9.20;99.90;;;;;;5071074;28;20667;-58
2023/11/08 03:39:09;;;;;;;2.10;0.73;;;9.40;99.90;;;;;;5071341;28;20256;-59
2023/11/08 03:41:36;;;;;;;3.77;0.90;;;9.50;99.90;;;;;;5071418;28;20308;-58
2023/11/08 03:44:05;;;;;;;2.43;1.17;;;9.50;99.90;;;;;;5071258;28;20205;-59
2023/11/08 03:46:32;;;;;;;1.43;0.60;;;9.50;99.90;;;;;;5071322;28;20661;-59
2023/11/08 03:48:59;;;;;;;3.43;1.00;;;9.50;99.90;;;;;;5071280;28;20256;-58
2023/11/08 03:51:28;;;;;;;1.77;0.73;;;9.40;99.90;;;;;;5071003;28;20208;-58
2023/11/08 03:53:54;;;;;;;1.93;0.93;;;9.40;99.90;;;;;;5071289;28;20291;-60
2023/11/08 03:56:21;;;;;;;1.67;0.70;;;9.40;99.90;;;;;;5071381;28;20228;-60
2023/11/08 03:58:48;;;;;;;1.83;0.97;;;9.50;99.90;;;;;;5070998;28;20311;-59
2023/11/08 04:01:15;;;;;;;2.07;0.90;;;9.50;99.90;;;;;;5071075;28;20231;-59
2023/11/08 04:03:41;;;;;;;3.77;1.37;;;9.60;99.90;;;;;;5070652;28;20205;-60
2023/11/08 04:06:08;;;;;;;3.87;1.10;;;9.70;99.90;;;;;;5070772;28;20235;-59
2023/11/08 04:08:36;;;;;;;2.03;1.00;;;9.70;99.90;;;;;;5070934;28;20252;-60
2023/11/08 04:11:03;;;;;;;3.47;1.07;;;9.80;99.90;;;;;;5070962;28;20216;-59
2023/11/08 04:13:30;;;;;;;2.47;1.10;;;9.80;99.90;;;;;;5070947;28;20209;-60
2023/11/08 04:15:57;;;;;;;20.70;15.00;;;9.80;99.90;;;;;;5070884;28;20228;-59
2023/11/08 04:18:24;;;;;;;4.50;1.20;;;9.80;99.90;;;;;;5094991;22;20658;-55
2023/11/08 04:20:50;;;;;;;2.47;1.23;;;9.90;99.90;;;;;;5080988;28;20212;-55
2023/11/08 04:23:17;;;;;;;4.10;1.37;;;10.00;99.90;;;;;;5082454;28;20207;-55
2023/11/08 04:25:49;;;;;;;4.50;1.20;;;10.00;99.90;;;;;;5081098;28;20203;-56
2023/11/08 04:28:16;;;;;;;4.80;1.60;;;10.10;99.90;;;;;;5081929;28;20300;-58
2023/11/08 04:30:44;;;;;;;2.83;1.03;;;10.10;99.90;;;;;;5074042;28;20209;-56
2023/11/08 04:33:10;;;;;;;2.80;1.20;;;10.10;99.90;;;;;;5073791;28;20204;-56
2023/11/08 04:35:38;;;;;;;3.67;1.23;;;10.20;99.90;;;;;;5073876;28;20279;-58
2023/11/08 04:38:05;;;;;;;3.33;1.30;;;10.10;99.90;;;;;;5074064;28;20232;-55
2023/11/08 04:40:32;;;;;;;5.00;1.30;;;10.10;99.90;;;;;;5074100;28;20232;-58
2023/11/08 04:43:00;;;;;;;2.40;1.10;;;10.20;99.90;;;;;;5073692;28;20616;-55
2023/11/08 04:45:27;;;;;;;2.40;1.20;;;10.20;99.90;;;;;;5074502;28;20239;-55
2023/11/08 04:47:53;;;;;;;7.23;1.40;;;10.20;99.90;;;;;;5073952;28;20224;-55
2023/11/08 04:50:19;;;;;;;3.37;1.30;;;10.20;99.90;;;;;;5073959;28;20231;-56
2023/11/08 04:52:46;;;;;;;2.27;1.00;;;10.20;99.90;;;;;;5073775;28;20708;-54
2023/11/08 04:55:13;;;;;;;5.00;1.27;;;10.10;99.90;;;;;;5075531;28;20209;-55
2023/11/08 04:57:40;;;;;;;5.30;1.80;;;10.00;99.90;;;;;;5075346;28;20196;-55
2023/11/08 05:00:10;;;;;;;4.80;1.47;;;10.00;99.90;;;;;;5074113;28;20301;-55
2023/11/08 05:02:38;;;;;;;3.57;1.37;;;9.90;99.90;;;;;;5073735;28;20204;-54
2023/11/08 05:05:05;;;;;;;4.77;1.27;;;9.80;99.90;;;;;;5057982;28;20262;-57
2023/11/08 05:07:32;;;;;;;3.83;1.40;;;9.80;99.90;;;;;;5073527;28;20220;-55
2023/11/08 05:09:59;;;;;;;3.30;1.20;;;9.80;99.90;;;;;;5072869;28;20221;-56
2023/11/08 05:12:26;;;;;;;1.80;0.83;;;9.80;99.90;;;;;;5073012;28;20257;-56
2023/11/08 05:14:53;;;;;;;2.90;1.20;;;9.80;99.90;;;;;;5073536;28;20209;-55
2023/11/08 05:17:21;;;;;;;5.77;1.40;;;9.90;99.90;;;;;;5073389;28;20233;-55
2023/11/08 05:19:48;;;;;;;2.87;1.27;;;9.90;99.90;;;;;;5072754;28;20233;-55
2023/11/08 05:22:15;;;;;;;1.23;1.00;;;10.00;99.90;;;;;;5072936;28;20201;-57
2023/11/08 05:24:43;;;;;;;1.47;0.90;;;10.10;99.90;;;;;;5072868;28;20208;-56
2023/11/08 05:27:11;;;;;;;1.90;1.00;;;10.20;99.90;;;;;;5072702;28;20263;-55
2023/11/08 05:29:38;;;;;;;3.70;1.27;;;10.20;99.90;;;;;;5073013;28;20220;-55
2023/11/08 05:32:05;;;;;;;1.80;0.90;;;10.10;99.90;;;;;;5056778;28;20205;-55
2023/11/08 05:34:33;;;;;;;2.23;1.10;;;10.10;99.90;;;;;;5072681;28;20201;-55
2023/11/08 05:37:00;;;;;;;3.13;1.17;;;10.00;99.90;;;;;;5072874;28;20218;-56
2023/11/08 05:39:27;;;;;;;3.27;1.30;;;10.00;99.90;;;;;;5071962;28;20227;-56
2023/11/08 05:41:54;;;;;;;3.17;0.90;;;9.90;99.90;;;;;;5072566;28;20281;-56
2023/11/08 05:44:21;;;;;;;4.80;1.30;;;9.80;99.90;;;;;;5072568;28;20674;-55
2023/11/08 05:46:48;;;;;;;2.83;1.27;;;9.80;99.90;;;;;;5072650;28;20229;-55
2023/11/08 05:49:15;;;;;;;5.73;1.47;;;9.80;99.90;;;;;;5071914;28;20636;-55
2023/11/08 05:51:43;;;;;;;4.00;1.43;;;9.70;99.90;;;;;;5072279;28;20563;-55
2023/11/08 05:54:10;;;;;;;3.67;1.97;;;9.70;99.90;;;;;;5072087;28;20209;-55
2023/11/08 05:56:37;;;;;;;5.40;2.20;;;9.70;99.90;;;;;;5072469;28;20197;-55
2023/11/08 05:59:03;;;;;;;3.27;1.00;;;9.80;99.90;;;;;;5072302;28;20275;-58
2023/11/08 06:01:30;;;;;;;3.67;1.30;;;9.90;99.90;;;;;;5072517;28;20402;-55
2023/11/08 06:03:57;;;;;;;3.20;1.43;;;9.90;99.90;;;;;;5072131;28;20209;-55
2023/11/08 06:06:24;;;;;;;2.90;1.30;;;10.00;99.90;;;;;;5072461;28;20505;-55
2023/11/08 06:08:52;;;;;;;4.07;1.50;;;10.10;99.90;;;;;;5071780;28;20278;-57
2023/11/08 06:11:19;;;;;;;4.83;1.87;;;10.10;99.90;;;;;;5072118;28;20291;-56
2023/11/08 06:13:46;;;;;;;3.73;1.37;;;10.20;99.90;;;;;;5071986;28;20208;-56
2023/11/08 06:16:13;;;;;;;2.87;1.30;;;10.20;99.90;;;;;;5072070;28;20204;-54
2023/11/08 06:18:40;;;;;;;3.97;1.57;;;10.10;99.90;;;;;;5071443;28;20736;-55
2023/11/08 06:21:08;;;;;;;2.97;1.83;;;10.10;99.90;;;;;;5055968;28;20292;-55
2023/11/08 06:23:36;;;;;;;5.70;1.90;;;10.10;99.90;;;;;;5071902;28;20236;-56
2023/11/08 06:26:04;;;;;;;4.17;2.13;;;10.10;99.90;;;;;;5071672;28;20224;-56
2023/11/08 06:28:31;;;;;;;4.57;1.80;;;10.10;99.90;;;;;;5071279;28;20235;-56
2023/11/08 06:30:59;;;;;;;4.07;1.70;;;10.20;99.90;;;;;;5071288;28;20200;-55
2023/11/08 06:33:26;;;;;;;2.27;1.10;;;10.20;99.90;;;;;;5070949;28;20559;-56
2023/11/08 06:35:52;;;;;;;4.77;1.57;;;10.30;99.90;;;;;;5071086;28;20213;-56
2023/11/08 06:38:19;;;;;;;2.97;1.50;;;10.30;99.90;;;;;;5071574;28;20225;-55
2023/11/08 06:40:46;;;;;;;2.60;1.40;;;10.30;99.90;;;;;;5071529;28;20208;-56
2023/11/08 06:43:14;;;;;;;3.00;1.10;;;10.30;99.90;;;;;;5071109;28;20211;-56
2023/11/08 06:45:41;;;;;;;8.40;1.90;;;10.40;99.90;;;;;;5071098;28;20208;-56
2023/11/08 06:48:08;;;;;;;5.10;1.60;;;10.40;99.90;;;;;;5071094;28;20221;-56
2023/11/08 06:50:35;;;;;;;5.27;1.93;;;10.50;99.90;;;;;;5070761;28;20197;-56
2023/11/08 06:53:02;;;;;;;2.67;1.30;;;10.40;99.90;;;;;;5070721;28;20671;-55
2023/11/08 06:55:30;;;;;;;3.13;1.43;;;10.40;99.90;;;;;;5071522;28;20232;-55
2023/11/08 06:57:56;;;;;;;6.07;2.03;;;10.50;99.90;;;;;;5070885;28;20646;-55
2023/11/08 07:00:24;;;;;;;3.33;1.63;;;10.60;99.90;;;;;;5071579;28;20204;-56
2023/11/08 07:02:51;;;;;;;3.10;1.60;;;10.60;99.90;;;;;;5070832;28;20204;-56
2023/11/08 07:05:18;;;;;;;6.43;1.43;;;10.60;99.90;;;;;;5071446;28;20201;-56
2023/11/08 07:07:45;;;;;;;5.73;1.87;;;10.50;99.90;;;;;;5070888;28;20212;-56
2023/11/08 07:10:12;;;;;;;16.00;7.33;;;10.40;99.90;;;;;;5071286;28;20201;-56
2023/11/08 07:12:39;;;;;;;5.30;2.57;;;10.30;99.90;;;;;;5070917;28;20673;-55
2023/11/08 07:15:06;;;;;;;4.57;1.90;;;10.20;99.90;;;;;;5071415;28;20244;-57
2023/11/08 07:17:35;;;;;;;3.70;1.50;;;10.10;99.90;;;;;;5070717;28;20200;-56
2023/11/08 07:20:04;;;;;;;3.77;1.40;;;10.20;99.90;;;;;;5070547;28;20298;-56
2023/11/08 07:22:31;;;;;;;5.70;1.60;;;10.10;99.90;;;;;;5070604;28;20200;-56
2023/11/08 07:24:58;;;;;;;3.27;2.73;;;10.10;99.90;;;;;;5070627;28;20205;-56
2023/11/08 07:27:25;;;;;;;6.83;2.37;;;10.00;99.90;;;;;;5070712;28;20221;-55
2023/11/08 07:29:53;;;;;;;4.33;1.70;;;10.00;99.90;;;;;;5070409;28;20243;-56
2023/11/08 07:32:20;;;;;;;4.73;1.30;;;10.00;99.90;;;;;;5070923;28;20201;-56
2023/11/08 07:34:48;;;;;;;4.40;1.80;;;10.00;99.90;;;;;;5070966;28;20201;-56
2023/11/08 07:37:14;;;;;;;3.03;1.30;;;10.00;99.90;;;;;;5070709;28;20201;-55
2023/11/08 07:39:41;;;;;;;4.20;1.40;;;10.00;99.90;;;;;;5070499;28;20228;-55
2023/11/08 07:42:09;;;;;;;2.87;1.50;;;10.00;99.90;;;;;;5070866;28;20201;-55
2023/11/08 07:44:35;;;;;;;4.13;1.50;;;10.00;99.90;;;;;;5070718;28;20204;-56
2023/11/08 07:47:02;;;;;;;6.07;1.70;;;10.10;99.90;;;;;;5070495;28;20278;-56
2023/11/08 07:49:29;;;;;;;3.93;1.33;;;10.10;99.90;;;;;;5070851;28;20232;-56
2023/11/08 07:51:57;;;;;;;3.70;1.40;;;10.10;99.90;;;;;;5070788;28;20205;-56
2023/11/08 07:54:24;;;;;;;2.30;1.13;;;10.20;99.90;;;;;;5070431;28;20204;-57
2023/11/08 07:56:50;;;;;;;3.20;1.37;;;10.20;99.90;;;;;;5070270;28;20671;-56
2023/11/08 07:59:17;;;;;;;2.83;1.37;;;10.20;99.90;;;;;;5070022;28;20217;-56
2023/11/08 08:01:45;;;;;;;2.70;1.30;;;10.30;99.90;;;;;;5070887;28;20594;-57
2023/11/08 08:04:11;;;;;;;5.20;2.70;;;10.40;99.90;;;;;;5074402;28;20200;-56
2023/11/08 08:06:40;;;;;;;3.00;1.30;;;10.50;99.90;;;;;;5074699;28;20212;-56
2023/11/08 08:09:14;;;;;;;7.17;1.50;;;10.50;99.90;;;;;;5074329;28;20236;-56
2023/11/08 08:11:44;;;;;;;3.23;1.40;;;10.60;99.90;;;;;;5074598;28;20219;-56
2023/11/08 08:14:10;;;;;;;3.33;1.47;;;10.70;99.90;;;;;;5058059;28;20209;-56
2023/11/08 08:16:39;;;;;;;2.63;1.10;;;10.80;99.90;;;;;;5074218;28;20201;-56
2023/11/08 08:19:05;;;;;;;4.10;1.27;;;10.80;99.90;;;;;;5074236;28;20278;-56
2023/11/08 08:21:32;;;;;;;1.70;1.20;;;10.90;99.90;;;;;;5074358;28;20349;-56
2023/11/08 08:23:59;;;;;;;2.03;1.17;;;11.10;99.90;;;;;;5073672;28;20205;-55
2023/11/08 08:26:28;;;;;;;4.40;2.03;;;11.40;99.90;;;;;;5074037;28;20205;-55
2023/11/08 08:28:55;;;;;;;2.67;1.20;;;11.50;99.90;;;;;;5073624;28;20233;-57
2023/11/08 08:31:21;;;;;;;4.23;1.10;;;11.70;99.90;;;;;;5073904;28;20233;-56
2023/11/08 08:33:50;;;;;;;3.93;1.47;;;11.80;99.90;;;;;;5073433;28;20228;-56
2023/11/08 08:36:17;;;;;;;2.53;1.30;;;11.90;99.90;;;;;;5073813;28;20702;-57
2023/11/08 08:38:44;;;;;;;3.70;1.30;;;11.90;99.90;;;;;;5073612;28;20235;-56
2023/11/08 08:41:11;;;;;;;4.20;1.27;;;11.90;99.90;;;;;;5057863;28;20201;-57
2023/11/08 08:43:39;;;;;;;2.17;1.10;;;11.90;99.90;;;;;;5073696;28;20209;-56
2023/11/08 08:46:06;;;;;;;2.97;1.27;;;11.90;99.90;;;;;;5073757;28;20197;-56
2023/11/08 08:48:32;;;;;;;2.13;1.23;;;11.90;99.90;;;;;;5073541;28;20229;-56
2023/11/08 08:50:59;;;;;;;4.93;1.40;;;12.00;99.90;;;;;;5073613;28;20213;-56
2023/11/08 08:53:27;;;;;;;3.27;0.80;;;12.00;99.90;;;;;;5073200;28;20683;-56
2023/11/08 08:55:54;;;;;;;3.50;1.17;;;12.00;99.90;;;;;;5073945;28;20241;-56
2023/11/08 08:58:21;;;;;;;3.47;1.20;;;12.10;99.90;;;;;;5073594;28;20220;-56
2023/11/08 09:00:49;;;;;;;3.20;0.83;;;12.20;99.90;;;;;;5073543;28;20205;-56
2023/11/08 09:03:15;;;;;;;1.57;1.07;;;12.20;99.90;;;;;;5073346;28;20250;-56
2023/11/08 09:05:43;;;;;;;2.53;1.03;;;12.20;99.90;;;;;;5073432;28;20728;-56
2023/11/08 09:08:10;;;;;;;2.87;0.80;;;12.30;99.90;;;;;;5073394;28;20225;-56
2023/11/08 09:10:37;;;;;;;1.93;0.80;;;12.30;99.90;;;;;;5073470;28;20606;-56
2023/11/08 09:13:04;;;;;;;3.27;1.37;;;12.40;99.90;;;;;;5073019;28;20222;-56
2023/11/08 09:15:32;;;;;;;3.83;1.10;;;12.40;99.90;;;;;;5073262;28;20232;-56
2023/11/08 09:18:00;;;;;;;2.23;1.10;;;12.40;99.90;;;;;;5072778;28;20202;-56
2023/11/08 09:20:26;;;;;;;1.83;1.00;;;12.50;99.90;;;;;;5073007;28;20205;-56
2023/11/08 09:22:53;;;;;;;2.20;1.00;;;12.50;99.90;;;;;;5072637;28;20678;-55
2023/11/08 09:25:20;;;;;;;3.07;1.50;;;12.50;99.90;;;;;;5073352;28;20201;-56
2023/11/08 09:27:47;;;;;;;1.00;0.70;;;12.60;99.90;;;;;;5072689;28;20319;-56
2023/11/08 09:30:14;;;;;;;1.80;0.90;;;12.70;99.90;;;;;;5072825;28;20201;-56
2023/11/08 09:32:41;;;;;;;1.93;0.90;;;12.70;99.90;;;;;;5072595;28;20216;-56
2023/11/08 09:35:09;;;;;;;1.80;1.00;;;12.70;99.90;;;;;;5072573;28;20205;-55
2023/11/08 09:37:36;;;;;;;2.50;1.17;;;12.80;99.90;;;;;;5072788;28;20208;-55
2023/11/08 09:40:04;;;;;;;1.90;0.70;;;12.90;99.90;;;;;;5072579;28;20312;-54
2023/11/08 09:42:32;;;;;;;2.97;0.80;;;12.80;99.90;;;;;;5072418;28;20205;-55
2023/11/08 09:45:00;;;;;;;3.77;1.30;;;12.80;99.90;;;;;;5072571;28;20262;-56
2023/11/08 09:47:27;;;;;;;2.70;0.97;;;12.90;99.90;;;;;;5072434;28;20667;-56
2023/11/08 09:49:55;;;;;;;3.67;1.07;;;13.00;99.90;;;;;;5072470;28;20282;-55
2023/11/08 09:52:23;;;;;;;2.17;0.80;;;13.00;99.90;;;;;;5072429;28;20215;-56
2023/11/08 09:54:50;;;;;;;2.03;0.90;;;13.00;99.90;;;;;;5073178;28;20241;-56
2023/11/08 09:57:20;;;;;;;3.17;1.30;;;13.20;99.90;;;;;;5072410;28;20212;-55
2023/11/08 09:59:47;;;;;;;2.53;0.80;;;13.30;99.90;;;;;;5072268;28;20229;-58
2023/11/08 10:02:16;;;;;;;1.80;1.10;;;13.40;99.90;;;;;;5071715;28;20246;-57
2023/11/08 10:04:43;;;;;;;3.80;0.93;;;13.50;99.90;;;;;;5072339;28;20197;-55
2023/11/08 10:07:10;;;;;;;6.83;3.60;;;13.70;99.90;;;;;;5072115;28;20728;-56
2023/11/08 10:09:39;;;;;;;15.73;9.63;;;13.90;99.90;;;;;;5071745;28;20224;-57
2023/11/08 10:12:08;;;;;;;42.17;20.60;;;14.10;99.90;;;;;;5071820;28;20208;-56
2023/11/08 10:14:36;;;;;;;6.53;2.20;;;14.10;99.90;;;;;;5071565;28;20248;-58
2023/11/08 10:17:04;;;;;;;12.83;8.57;;;14.10;99.90;;;;;;5070553;28;20205;-56
2023/11/08 10:19:41;;;;;;;6.23;3.43;;;14.10;99.90;;;;;;5093755;22;20305;-62
2023/11/08 10:22:17;;;;;;;15.07;6.63;;;14.10;99.90;;;;;;5080896;28;20216;-60
2023/11/08 10:24:55;;;;;;;10.47;6.10;;;14.00;99.90;;;;;;5079673;28;20205;-59
2023/11/08 10:27:23;;;;;;;13.13;6.37;;;14.00;99.90;;;;;;5073238;28;20269;-59
2023/11/08 10:29:50;;;;;;;7.30;3.17;;;14.10;99.90;;;;;;5088589;28;20311;-59
2023/11/08 10:32:21;;;;;;;9.77;2.27;;;14.30;99.90;;;;;;5091859;28;20200;-59
2023/11/08 10:34:48;;;;;;;3.50;1.57;;;14.50;99.90;;;;;;5091705;28;20216;-59
2023/11/08 10:37:25;;;;;;;2.23;0.70;;;14.70;99.90;;;;;;5091823;28;20206;-59
2023/11/08 10:39:55;;;;;;;1.13;0.67;;;15.00;99.90;;;;;;5091296;28;20232;-59
2023/11/08 10:42:24;;;;;;;2.13;0.87;;;15.10;99.90;;;;;;5091604;28;20207;-59
2023/11/08 10:44:51;;;;;;;1.70;0.70;;;15.20;99.90;;;;;;5091463;28;20626;-59
2023/11/08 10:47:18;;;;;;;3.43;0.83;;;15.30;99.90;;;;;;5092288;28;20396;-59
2023/11/08 10:49:50;;;;;;;3.13;0.80;;;15.50;99.90;;;;;;5091528;28;20231;-59
2023/11/08 10:52:18;;;;;;;3.23;1.17;;;15.60;99.90;;;;;;5075309;28;20670;-59
2023/11/08 10:54:47;;;;;;;4.37;0.90;;;15.60;99.90;;;;;;5091649;28;20210;-59
2023/11/08 10:57:17;;;;;;;2.65;0.98;;;15.70;99.90;;;;;;5083215;28;20257;-59
2023/11/08 10:59:48;;;;;;;2.43;0.77;;;15.70;99.90;;;;;;5091365;28;20681;-59
2023/11/08 11:02:27;;;;;;;1.67;0.50;;;15.60;99.90;;;;;;5083239;28;20204;-59
2023/11/08 11:04:58;;;;;;;5.77;0.97;;;15.60;99.90;;;;;;5091307;28;20305;-59
2023/11/08 11:07:26;;;;;;;8.70;5.47;;;15.50;99.90;;;;;;5091396;28;20196;-59
2023/11/08 11:09:54;;;;;;;2.03;1.27;;;15.40;99.90;;;;;;5090926;28;20246;-59
2023/11/08 11:12:32;;;;;;;1.53;0.80;;;15.40;99.90;;;;;;5091399;28;20228;-59
2023/11/08 11:15:08;;;;;;;1.73;0.70;;;15.40;99.90;;;;;;5091038;28;20218;-59
2023/11/08 11:17:39;;;;;;;1.33;0.50;;;15.50;99.90;;;;;;5091324;28;20223;-59
2023/11/08 11:20:10;;;;;;;2.63;0.70;;;15.50;99.90;;;;;;5090801;28;20239;-57
2023/11/08 11:22:40;;;;;;;2.47;0.90;;;15.60;99.90;;;;;;5091376;28;20200;-57
2023/11/08 11:25:09;;;;;;;1.63;1.27;;;15.70;99.90;;;;;;5091669;28;20297;-57
2023/11/08 11:27:46;;;;;;;1.10;0.60;;;15.70;99.90;;;;;;5091047;28;20200;-59
2023/11/08 11:30:26;;;;;;;1.90;1.00;;;15.70;99.90;;;;;;5091321;28;20611;-57
2023/11/08 11:32:54;;;;;;;4.50;3.10;;;15.80;99.90;;;;;;5090585;28;20692;-57
2023/11/08 11:35:43;;;;;;;2.13;0.87;;;15.70;99.90;;;;;;5091102;28;20200;-56
2023/11/08 11:38:27;;;;;;;2.97;0.70;;;15.80;99.90;;;;;;5089714;28;20250;-56
2023/11/08 11:41:23;;;;;;;1.83;1.13;;;16.10;99.90;;;;;;5090776;28;20208;-56
2023/11/08 11:43:53;;;;;;;1.08;0.90;;;16.10;99.90;;;;;;5090588;28;20666;-57
2023/11/08 11:46:23;;;;;;;1.37;0.97;;;16.10;99.90;;;;;;5075689;28;20204;-58
2023/11/08 11:49:10;;;;;;;3.13;1.07;;;16.00;99.90;;;;;;5090156;28;20578;-58
2023/11/08 11:51:39;;;;;;;3.33;1.05;;;16.00;99.90;;;;;;5090246;28;20204;-58
2023/11/08 11:54:07;;;;;;;2.28;1.10;;;16.00;99.90;;;;;;5090327;28;20204;-57
2023/11/08 11:56:35;;;;;;;3.60;1.03;;;16.00;99.90;;;;;;5090562;28;20230;-59
2023/11/08 11:59:02;;;;;;;3.95;0.90;;;16.10;99.90;;;;;;5090530;28;20232;-58
2023/11/08 12:01:29;;;;;;;1.48;1.10;;;16.10;99.90;;;;;;5090991;28;20286;-61
2023/11/08 12:03:57;;;;;;;3.45;1.30;;;16.20;99.90;;;;;;5090172;28;20567;-59
2023/11/08 12:06:24;;;;;;;1.13;0.85;;;16.10;99.90;;;;;;5090691;28;20673;-59
2023/11/08 12:08:51;;;;;;;2.97;1.13;;;15.90;99.90;;;;;;5090333;28;20239;-60
2023/11/08 12:11:19;;;;;;;2.00;0.95;;;16.00;99.90;;;;;;5090563;28;20228;-59
2023/11/08 12:13:47;;;;;;;1.37;1.17;;;15.90;99.90;;;;;;5090656;28;20639;-57
2023/11/08 12:16:15;;;;;;;5.90;5.00;;;15.90;99.90;;;;;;5090303;28;20205;-58
2023/11/08 12:18:42;;;;;;;5.33;3.30;;;16.00;99.90;;;;;;5090195;28;20225;-58
2023/11/08 12:21:09;;;;;;;3.50;1.83;;;16.10;99.90;;;;;;5090369;28;20204;-60
2023/11/08 12:23:36;;;;;;;3.10;1.30;;;16.20;99.90;;;;;;5089902;28;20669;-58
2023/11/08 12:26:03;;;;;;;1.90;0.87;;;16.30;99.90;;;;;;5090588;28;20223;-58
2023/11/08 12:28:31;;;;;;;2.05;0.98;;;16.30;99.90;;;;;;5090205;28;20232;-59
2023/11/08 12:31:05;;;;;;;1.80;0.97;;;16.30;99.90;;;;;;5090189;28;20205;-59
2023/11/08 12:33:33;;;;;;;2.05;0.82;;;16.30;99.90;;;;;;5090236;28;20279;-56
2023/11/08 12:36:00;;;;;;;3.45;1.67;;;16.20;99.90;;;;;;5089911;28;20388;-56
2023/11/08 12:38:27;;;;;;;1.13;0.83;;;16.20;99.90;;;;;;5090193;28;20243;-56
2023/11/08 12:41:04;;;;;;;2.67;1.05;;;16.20;99.90;;;;;;5090136;28;20208;-57
2023/11/08 12:43:33;;;;;;;1.30;0.90;;;16.20;99.90;;;;;;5090354;28;20204;-56
2023/11/08 12:46:06;;;;;;;2.53;1.13;;;16.30;99.90;;;;;;5090301;28;20269;-57
2023/11/08 12:48:34;;;;;;;1.50;0.93;;;16.10;99.90;;;;;;5091628;28;20228;-56
2023/11/08 12:51:03;;;;;;;1.98;0.70;;;15.80;99.90;;;;;;5093746;28;20243;-56
2023/11/08 12:53:32;;;;;;;2.85;1.90;;;15.60;99.90;;;;;;5093276;28;20692;-57